Miami, FL

8:20 PM EDT on August 28, 2016 (GMT -0400)
Miami International | | Change Station

Elev 13 ft 25.79 °N, 80.32 °W | Updated 27 minutes ago

Light Rain
Light Rain
82 °F
Feels Like 90 °F
N
13
Wind Variable Wind from ESE

Today
High -- | Low -- °F
--% Chance of Precip.
Yesterday
High -- | Low -- °F
Precip. -- in
Pressure 29.89 in
Visibility 8.0 miles
Clouds Scattered Clouds 2500 ft
Mostly Cloudy 4200 ft
Mostly Cloudy 13000 ft
Mostly Cloudy 25000 ft
Heat Index 90 °F
Dew Point 77 °F
Humidity 85%
Rainfall 0.17 in
Snow Depth Not available.
7:00 AM 7:44 PM
Waning Crescent, 12% visible
METAR KMIA 282353Z 11011KT 8SM -RA SCT025CB BKN042 BKN130 BKN250 28/25 A2989 RMK AO2 RAB42 SLP122 CB E-S-W MOV W CB DSNT N MOV W P0001 60001 T02780250 10322 20278 53007
Pressure 29.89 in
Visibility 8.0 miles
Clouds Scattered Clouds 2500 ft
Mostly Cloudy 4200 ft
Mostly Cloudy 13000 ft
Mostly Cloudy 25000 ft
Heat Index 90 °F
Dew Point 77 °F
Humidity 85%
Rainfall 0.17 in
Snow Depth Not available.
7:00 AM 7:44 PM
Waning Crescent, 12% visible
METAR KMIA 282353Z 11011KT 8SM -RA SCT025CB BKN042 BKN130 BKN250 28/25 A2989 RMK AO2 RAB42 SLP122 CB E-S-W MOV W CB DSNT N MOV W P0001 60001 T02780250 10322 20278 53007

10-Day Weather Forecast

Almanac

Astronomy

Aug. 28, 2016 Rise Set
Actual Time
Civil Twilight
Nautical Twilight
Astronomical Twilight
Moon
Length of Visible Light
Length of Day
Tomorrow will be .
, % of the Moon is Illuminated

Today's Extremes

State Highs State Lows

Community

WunderPhotos

Upload Photos

1,935,728 photos uploaded!

WunderBlog® & News

Nearby

Air Quality

  Air Quality AQ Index Pollutant
Not available.

Snow Depth

Station Depth Elevation

Earthquake Activity

City Distance Mag. Time & Date
Minimum magnitude displayed is 2.5.

Coastal Water Temperatures

Place Temperature

Stations

Nearby Weather Stations

Station Location Temp. Windchill Dew Point Humidity Wind Precip. Elev Updated Type
                   

Watches & Warnings

There are currently no watches in effect.